createdAt,value
2022-12-23T00:00:43.126Z,12.50
2022-12-23T00:03:10.084Z,11.65
2022-12-23T00:05:40.745Z,9.93
2022-12-23T00:08:08.314Z,8.23
2022-12-23T00:10:39.283Z,6.85
2022-12-23T00:13:25.307Z,8.90
2022-12-23T00:16:00.564Z,10.38
2022-12-23T00:18:27.431Z,11.82
2022-12-23T00:21:09.458Z,13.03
2022-12-23T00:23:42.168Z,13.38
2022-12-23T00:26:17.904Z,13.43
2022-12-23T00:28:45.326Z,13.57
2022-12-23T00:31:44.810Z,14.05
2022-12-23T00:34:18.667Z,10.10
2022-12-23T00:36:55.730Z,13.68
2022-12-23T00:39:44.576Z,12.82
2022-12-23T00:42:38.627Z,12.80
2022-12-23T00:45:18.772Z,13.77
2022-12-23T00:51:17.694Z,15.35
2022-12-23T00:53:48.241Z,15.50
2022-12-23T00:56:19.732Z,17.02
2022-12-23T00:58:51.367Z,18.88
2022-12-23T01:01:37.565Z,18.13
2022-12-23T01:04:27.950Z,17.33
2022-12-23T01:07:02.233Z,17.77
2022-12-23T01:09:29.932Z,15.50
2022-12-23T01:11:58.504Z,15.82
2022-12-23T01:14:34.890Z,17.70
2022-12-23T01:17:02.682Z,17.17
2022-12-23T01:19:30.159Z,15.90
2022-12-23T01:22:00.839Z,16.58
2022-12-23T01:24:30.735Z,15.88
2022-12-23T01:26:59.569Z,16.87
2022-12-23T01:29:27.171Z,19.48
2022-12-23T01:31:55.124Z,18.60
2022-12-23T01:34:23.540Z,18.67
2022-12-23T01:36:51.107Z,20.27
2022-12-23T01:39:20.131Z,19.67
2022-12-23T01:42:14.052Z,20.90
2022-12-23T01:45:04.636Z,21.60
2022-12-23T01:47:47.287Z,22.15
2022-12-23T01:50:24.514Z,20.40
2022-12-23T01:53:06.959Z,21.37
2022-12-23T01:55:53.864Z,21.83
2022-12-23T01:58:41.254Z,19.25
2022-12-23T02:01:28.381Z,22.92
2022-12-23T02:04:01.085Z,23.83
2022-12-23T02:06:54.731Z,24.57
2022-12-23T02:09:34.572Z,24.65
2022-12-23T02:12:14.931Z,24.02
2022-12-23T02:15:13.714Z,22.25
2022-12-23T02:17:49.655Z,24.08
2022-12-23T02:20:20.402Z,21.93
2022-12-23T02:23:28.288Z,20.67
2022-12-23T02:26:13.393Z,19.70
2022-12-23T02:29:18.772Z,20.30
2022-12-23T02:32:06.754Z,18.65
2022-12-23T02:34:54.684Z,17.70
2022-12-23T02:37:42.396Z,17.05
2022-12-23T02:40:51.147Z,18.63
2022-12-23T02:43:55.207Z,17.20
2022-12-23T02:46:38.631Z,19.80
2022-12-23T02:49:25.111Z,20.37
2022-12-23T02:52:01.126Z,16.63
2022-12-23T02:54:33.649Z,15.82
2022-12-23T02:57:05.405Z,15.85
2022-12-23T02:59:52.168Z,15.07
2022-12-23T03:02:22.933Z,13.07
2022-12-23T03:07:44.826Z,13.80
2022-12-23T03:10:40.189Z,15.00
2022-12-23T03:13:28.773Z,13.98
2022-12-23T03:16:09.303Z,12.83
2022-12-23T03:19:25.252Z,13.18
2022-12-23T03:22:37.707Z,12.82
2022-12-23T03:25:18.116Z,14.85
2022-12-23T03:28:04.194Z,15.02
2022-12-23T03:30:38.569Z,14.23
2022-12-23T03:33:20.464Z,15.93
2022-12-23T03:35:58.047Z,14.65
2022-12-23T03:38:27.646Z,15.40
2022-12-23T03:41:06.115Z,15.85
2022-12-23T03:43:44.802Z,17.73
2022-12-23T03:47:04.255Z,18.40
2022-12-23T03:49:56.050Z,17.50
2022-12-23T03:52:41.993Z,17.95
2022-12-23T03:55:27.723Z,16.50
2022-12-23T03:58:24.063Z,16.87
2022-12-23T04:01:18.008Z,16.70
2022-12-23T04:04:00.230Z,15.52
2022-12-23T04:06:42.656Z,16.35
2022-12-23T04:09:24.476Z,16.63
2022-12-23T04:12:02.928Z,15.70
2022-12-23T04:14:31.306Z,16.90
2022-12-23T04:16:59.989Z,16.58
2022-12-23T04:19:28.685Z,16.10
2022-12-23T04:22:01.707Z,16.77
2022-12-23T04:25:23.388Z,18.03
2022-12-23T04:27:57.297Z,16.02
2022-12-23T04:30:34.001Z,16.73
2022-12-23T04:33:06.138Z,16.77
2022-12-23T04:35:42.594Z,17.05
2022-12-23T04:38:10.661Z,17.73
2022-12-23T04:40:38.230Z,17.48
2022-12-23T04:43:06.318Z,13.90
2022-12-23T04:45:37.607Z,17.67
2022-12-23T04:48:08.149Z,17.20
2022-12-23T04:50:43.505Z,17.67
2022-12-23T04:53:11.990Z,18.20
2022-12-23T04:55:39.939Z,18.15
2022-12-23T04:58:08.203Z,17.92
2022-12-23T05:00:39.870Z,16.88
2022-12-23T05:03:08.559Z,17.23
2022-12-23T05:05:36.813Z,17.33
2022-12-23T05:08:09.257Z,17.02
2022-12-23T05:10:40.413Z,16.70
2022-12-23T05:13:07.987Z,16.65
2022-12-23T05:15:35.363Z,17.17
2022-12-23T05:18:03.685Z,18.80
2022-12-23T05:20:36.213Z,17.02
2022-12-23T05:23:07.839Z,16.40
2022-12-23T05:25:52.677Z,17.20
2022-12-23T05:28:24.116Z,15.80
2022-12-23T05:31:17.831Z,16.98
2022-12-23T05:33:45.788Z,16.88
2022-12-23T05:36:13.650Z,17.90
2022-12-23T05:38:41.050Z,17.85
2022-12-23T05:41:08.919Z,18.70
2022-12-23T05:43:37.194Z,16.83
2022-12-23T05:46:08.958Z,16.90
2022-12-23T05:48:38.666Z,16.65
2022-12-23T05:51:11.449Z,14.50
2022-12-23T05:53:41.943Z,16.27
2022-12-23T05:56:12.308Z,16.70
2022-12-23T05:58:40.121Z,15.30
2022-12-23T06:01:09.209Z,15.65
2022-12-23T06:03:46.458Z,16.67
2022-12-23T06:06:17.938Z,15.70
2022-12-23T06:08:55.868Z,16.85
2022-12-23T06:11:41.071Z,15.73
2022-12-23T06:14:47.762Z,16.75
2022-12-23T06:18:11.527Z,16.58
2022-12-23T07:04:40.432Z,18.33
2022-12-23T07:07:07.329Z,16.77
2022-12-23T07:09:34.151Z,20.02
2022-12-23T07:12:03.067Z,19.15
2022-12-23T07:14:29.944Z,20.75
2022-12-23T07:16:59.948Z,18.90
2022-12-23T07:19:26.981Z,20.27
2022-12-23T07:21:56.412Z,19.27
2022-12-23T07:24:23.270Z,20.02
2022-12-23T07:26:51.455Z,19.83
2022-12-23T07:29:18.395Z,21.00
2022-12-23T07:31:45.444Z,21.83
2022-12-23T07:34:12.611Z,18.75
2022-12-23T07:36:39.560Z,20.70
2022-12-23T07:39:06.587Z,20.67
2022-12-23T07:41:39.130Z,22.08
2022-12-23T07:44:10.820Z,21.23
2022-12-23T07:46:38.754Z,21.40
2022-12-23T07:49:05.902Z,22.13
2022-12-23T07:51:32.821Z,19.95
2022-12-23T07:53:59.793Z,21.30
2022-12-23T07:56:26.643Z,19.70
2022-12-23T07:58:54.379Z,20.98
2022-12-23T08:01:22.422Z,19.90
2022-12-23T08:03:49.769Z,18.63
2022-12-23T08:06:17.283Z,18.60
2022-12-23T08:08:46.086Z,21.10
2022-12-23T08:11:18.204Z,19.55
2022-12-23T08:13:46.227Z,21.85
2022-12-23T08:16:13.402Z,23.05
2022-12-23T08:18:43.363Z,21.00
2022-12-23T08:21:16.892Z,20.00
2022-12-23T08:23:43.909Z,19.75
2022-12-23T08:26:13.755Z,18.55
2022-12-23T08:28:42.195Z,18.35
2022-12-23T08:31:10.549Z,18.33
2022-12-23T08:33:38.893Z,17.63
2022-12-23T08:36:08.571Z,17.95
2022-12-23T08:38:36.539Z,16.52
2022-12-23T08:41:08.056Z,17.33
2022-12-23T08:43:36.129Z,17.40
2022-12-23T08:46:03.892Z,18.13
2022-12-23T08:48:31.657Z,16.65
2022-12-23T08:51:04.474Z,17.50
2022-12-23T08:53:31.940Z,18.92
2022-12-23T08:56:09.334Z,18.00
2022-12-23T08:58:38.286Z,16.50
2022-12-23T09:01:07.335Z,17.02
2022-12-23T09:03:35.172Z,16.63
2022-12-23T09:06:07.271Z,16.42
2022-12-23T09:08:34.573Z,16.50
2022-12-23T09:11:02.087Z,17.53
2022-12-23T09:13:35.078Z,15.77
2022-12-23T09:16:03.287Z,15.38
2022-12-23T09:18:30.358Z,16.83
2022-12-23T09:21:05.489Z,17.33
2022-12-23T09:23:33.447Z,18.67
2022-12-23T09:26:00.512Z,17.10
2022-12-23T09:28:27.597Z,14.70
2022-12-23T09:30:54.799Z,18.80
2022-12-23T09:33:22.016Z,17.80
2022-12-23T09:35:49.327Z,17.33
2022-12-23T09:38:19.128Z,16.73
2022-12-23T09:40:46.551Z,19.33
2022-12-23T09:43:38.024Z,18.17
2022-12-23T09:46:20.097Z,19.08
2022-12-23T09:49:02.711Z,21.33
2022-12-23T09:51:31.413Z,24.17
2022-12-23T09:54:48.361Z,24.65
2022-12-23T09:57:29.128Z,25.25
2022-12-23T10:00:16.889Z,26.15
2022-12-23T10:03:16.506Z,27.60
2022-12-23T10:06:01.116Z,24.33
2022-12-23T10:08:36.293Z,24.08
2022-12-23T10:11:25.063Z,26.92
2022-12-23T10:13:57.502Z,25.90
2022-12-23T10:16:29.724Z,27.30
2022-12-23T10:19:01.810Z,25.30
2022-12-23T10:21:53.572Z,27.63
2022-12-23T10:24:26.183Z,26.33
2022-12-23T10:27:00.920Z,26.10
2022-12-23T10:29:32.606Z,25.53
2022-12-23T10:32:17.864Z,27.63
2022-12-23T10:34:52.488Z,27.13
2022-12-23T10:37:51.687Z,26.95
2022-12-23T10:40:30.593Z,26.63
2022-12-23T10:43:16.428Z,25.97
2022-12-23T10:45:55.443Z,27.15
2022-12-23T10:49:00.411Z,25.85
2022-12-23T10:51:36.660Z,26.50
2022-12-23T10:54:11.984Z,28.67
2022-12-23T10:56:39.050Z,27.17
2022-12-23T10:59:12.247Z,27.90
2022-12-23T11:01:41.300Z,26.58
2022-12-23T11:04:14.646Z,32.92
2022-12-23T11:06:46.671Z,30.85
2022-12-23T11:09:20.485Z,31.07
2022-12-23T11:12:06.456Z,31.88
2022-12-23T11:14:50.474Z,33.03
2022-12-23T11:17:29.631Z,31.77
2022-12-23T11:20:07.983Z,35.08
2022-12-23T11:22:34.972Z,33.83
2022-12-23T11:25:34.776Z,32.75
2022-12-23T11:28:15.907Z,33.95
2022-12-23T11:30:56.626Z,34.83
2022-12-23T11:33:29.037Z,33.30
2022-12-23T11:36:24.955Z,33.13
2022-12-23T11:38:54.583Z,33.97
2022-12-23T11:41:27.794Z,33.88
2022-12-23T11:44:07.424Z,34.10
2022-12-23T11:46:37.179Z,34.25
2022-12-23T11:49:23.294Z,31.70
2022-12-23T11:52:11.377Z,33.65
2022-12-23T11:54:39.629Z,31.13
2022-12-23T11:57:19.682Z,29.02
2022-12-23T11:59:50.313Z,32.33
2022-12-23T12:02:39.849Z,31.63
2022-12-23T12:05:34.783Z,29.35
2022-12-23T12:08:05.885Z,28.70
2022-12-23T12:10:38.590Z,29.40
2022-12-23T12:13:26.023Z,30.20
2022-12-23T12:16:07.826Z,28.67
2022-12-23T12:18:36.732Z,27.05
2022-12-23T12:21:09.592Z,27.92
2022-12-23T12:23:42.064Z,25.88
2022-12-23T12:26:19.360Z,25.88
2022-12-23T12:28:50.918Z,24.67
2022-12-23T12:31:49.734Z,24.30
2022-12-23T12:34:30.269Z,22.20
2022-12-23T12:37:43.283Z,21.33
2022-12-23T12:40:34.222Z,21.60
2022-12-23T12:43:22.819Z,20.33
2022-12-23T12:46:04.461Z,20.33
2022-12-23T12:48:59.867Z,19.70
2022-12-23T12:51:51.326Z,19.30
2022-12-23T12:54:35.302Z,18.70
2022-12-23T12:57:05.600Z,18.80
2022-12-23T12:59:38.133Z,18.58
2022-12-23T13:02:46.703Z,18.55
2022-12-23T13:05:26.921Z,19.10
2022-12-23T13:08:12.001Z,21.92
2022-12-23T13:10:51.602Z,20.33
2022-12-23T13:13:33.959Z,20.23
2022-12-23T13:16:16.486Z,19.00
2022-12-23T13:18:50.528Z,18.60
2022-12-23T13:21:37.432Z,18.70
2022-12-23T13:24:21.482Z,20.40
2022-12-23T13:27:06.061Z,20.50
2022-12-23T13:29:58.250Z,18.30
2022-12-23T13:32:45.223Z,20.60
2022-12-23T13:35:21.527Z,19.45
2022-12-23T13:37:54.779Z,20.67
2022-12-23T13:40:54.661Z,20.60
2022-12-23T13:43:25.369Z,19.50
2022-12-23T13:45:55.760Z,18.95
2022-12-23T13:48:52.551Z,19.30
2022-12-23T13:51:33.057Z,20.47
2022-12-23T13:54:14.220Z,19.10
2022-12-23T13:56:57.048Z,20.40
2022-12-23T13:59:38.860Z,19.58
2022-12-23T14:02:37.491Z,19.30
2022-12-23T14:05:26.298Z,17.20
2022-12-23T14:07:54.574Z,18.75
2022-12-23T14:10:24.485Z,17.20
2022-12-23T14:12:53.180Z,18.60
2022-12-23T14:15:38.557Z,17.90
2022-12-23T14:18:33.645Z,20.43
2022-12-23T14:21:15.669Z,18.63
2022-12-23T14:24:04.993Z,17.40
2022-12-23T14:27:08.243Z,18.08
2022-12-23T14:29:49.885Z,18.80
2022-12-23T14:32:24.004Z,18.20
2022-12-23T14:35:19.295Z,17.63
2022-12-23T14:38:05.337Z,16.73
2022-12-23T14:40:38.281Z,17.65
2022-12-23T14:43:26.213Z,22.85
2022-12-23T14:46:01.287Z,19.33
2022-12-23T14:48:34.500Z,18.77
2022-12-23T14:51:04.212Z,16.98
2022-12-23T14:53:33.436Z,17.83
2022-12-23T14:56:16.955Z,17.73
2022-12-23T14:59:18.936Z,19.63
2022-12-23T15:01:58.326Z,19.70
2022-12-23T15:04:35.360Z,18.25
2022-12-23T15:07:09.196Z,17.52
2022-12-23T15:09:40.520Z,18.13
2022-12-23T15:12:18.400Z,19.20
2022-12-23T15:14:51.292Z,19.40
2022-12-23T15:17:30.820Z,18.20
2022-12-23T15:20:24.756Z,18.73
2022-12-23T15:22:52.820Z,19.08
2022-12-23T15:25:32.490Z,26.77
2022-12-23T15:28:02.692Z,21.08
2022-12-23T15:30:36.425Z,17.88
2022-12-23T15:33:27.926Z,19.02
2022-12-23T15:35:55.017Z,17.42
2022-12-23T15:38:25.157Z,17.00
2022-12-23T15:41:03.982Z,16.65
2022-12-23T15:43:31.346Z,15.32
2022-12-23T15:46:31.571Z,16.23
2022-12-23T15:48:58.724Z,25.15
2022-12-23T15:52:05.064Z,18.57
2022-12-23T15:54:27.077Z,12.38
2022-12-23T15:56:56.356Z,12.77
2022-12-23T15:59:38.535Z,12.15
2022-12-23T16:05:39.330Z,11.13
2022-12-23T16:08:19.363Z,12.50
2022-12-23T16:11:19.935Z,18.20
2022-12-23T16:13:59.266Z,15.60
2022-12-23T16:16:34.088Z,13.80
2022-12-23T16:19:01.270Z,14.73
2022-12-23T16:21:32.706Z,15.15
2022-12-23T16:24:01.117Z,13.00
2022-12-23T16:26:28.098Z,14.80
2022-12-23T16:28:59.387Z,14.45
2022-12-23T16:31:26.717Z,15.77
2022-12-23T16:34:04.115Z,15.20
2022-12-23T16:36:31.198Z,14.77
2022-12-23T16:39:07.394Z,14.77
2022-12-23T16:41:36.441Z,14.13
2022-12-23T16:44:07.104Z,20.87
2022-12-23T16:46:38.822Z,18.73
2022-12-23T16:49:11.117Z,19.40
2022-12-23T16:51:41.180Z,17.55
2022-12-23T16:54:17.507Z,19.25
2022-12-23T16:56:46.999Z,17.70
2022-12-23T16:59:14.850Z,18.33
2022-12-23T17:01:46.725Z,10.02
2022-12-23T17:04:14.555Z,13.40
2022-12-23T17:06:42.035Z,14.98
2022-12-23T17:09:10.235Z,16.33
2022-12-23T17:11:41.648Z,12.75
2022-12-23T17:14:18.266Z,14.27
2022-12-23T17:16:45.929Z,14.63
2022-12-23T17:19:13.986Z,12.65
2022-12-23T17:21:43.410Z,11.70
2022-12-23T17:24:24.127Z,13.48
2022-12-23T17:26:51.956Z,12.50
2022-12-23T17:29:19.187Z,11.52
2022-12-23T17:31:47.687Z,11.05
2022-12-23T17:34:22.877Z,10.67
2022-12-23T17:36:51.232Z,8.13
2022-12-23T17:39:19.846Z,10.52
2022-12-23T17:41:47.254Z,8.52
2022-12-23T17:44:15.935Z,8.45
2022-12-23T17:46:43.171Z,9.00
2022-12-23T17:49:10.136Z,6.78
2022-12-23T17:51:40.107Z,9.85
2022-12-23T17:54:08.451Z,10.98
2022-12-23T17:56:35.509Z,10.85
2022-12-23T17:59:02.566Z,7.67
2022-12-23T18:01:31.898Z,10.60
2022-12-23T18:04:00.419Z,8.77
2022-12-23T18:06:28.980Z,10.25
2022-12-23T18:08:59.182Z,10.00
2022-12-23T18:11:37.055Z,7.37
2022-12-23T18:14:04.458Z,8.98
2022-12-23T18:16:31.516Z,7.57
2022-12-23T18:18:58.845Z,6.80
2022-12-23T18:21:28.033Z,10.50
2022-12-23T18:23:57.779Z,7.93
2022-12-23T18:26:25.274Z,10.40
2022-12-23T18:28:54.237Z,6.60
2022-12-23T18:31:24.325Z,7.72
2022-12-23T18:33:52.825Z,7.30
2022-12-23T18:36:29.129Z,7.53
2022-12-23T18:38:57.336Z,7.90
2022-12-23T18:41:26.201Z,6.72
2022-12-23T18:43:53.763Z,5.57
2022-12-23T18:46:21.869Z,7.97
2022-12-23T18:48:49.195Z,8.07
2022-12-23T18:51:17.755Z,8.13
2022-12-23T18:53:48.667Z,8.00
2022-12-23T18:56:20.202Z,7.10
2022-12-23T18:58:47.487Z,9.55
2022-12-23T19:01:16.313Z,9.07
2022-12-23T19:03:43.694Z,8.60
2022-12-23T19:06:13.528Z,7.95
2022-12-23T19:08:41.595Z,7.95
2022-12-23T19:11:17.371Z,7.97
2022-12-23T19:13:45.247Z,10.23
2022-12-23T19:16:17.429Z,7.57
2022-12-23T19:18:45.359Z,8.27
2022-12-23T19:21:12.632Z,8.05
2022-12-23T19:23:41.349Z,11.32
2022-12-23T19:26:12.904Z,9.37
2022-12-23T19:28:42.693Z,8.00
2022-12-23T19:31:12.755Z,7.88
2022-12-23T19:33:41.396Z,8.43
2022-12-23T19:36:59.712Z,8.80
2022-12-23T19:39:27.016Z,7.13
2022-12-23T19:41:53.913Z,8.10
2022-12-23T19:44:21.077Z,8.15
2022-12-23T19:46:49.216Z,6.25
2022-12-23T19:49:20.193Z,8.30
2022-12-23T19:51:48.038Z,7.53
2022-12-23T19:54:15.138Z,7.07
2022-12-23T19:56:42.047Z,6.97
2022-12-23T19:59:09.391Z,5.65
2022-12-23T20:01:37.004Z,5.85
2022-12-23T20:04:04.124Z,6.10
2022-12-23T20:06:34.692Z,4.93
2022-12-23T20:09:04.451Z,5.65
2022-12-23T20:11:37.830Z,5.25
2022-12-23T20:14:06.025Z,7.47
2022-12-23T20:16:34.559Z,6.70
2022-12-23T20:19:03.574Z,5.80
2022-12-23T20:21:30.663Z,5.57
2022-12-23T20:23:57.679Z,7.63
2022-12-23T20:26:29.127Z,8.20
2022-12-23T20:28:56.981Z,9.30
2022-12-23T20:31:26.109Z,7.75
2022-12-23T20:33:54.398Z,9.98
2022-12-23T20:36:27.698Z,6.63
2022-12-23T20:38:56.137Z,6.28
2022-12-23T20:41:29.004Z,6.87
2022-12-23T20:44:32.558Z,7.82
2022-12-23T20:46:43.851Z,7.00
2022-12-23T20:49:11.137Z,7.00
2022-12-23T20:51:37.968Z,6.35
2022-12-23T20:54:05.283Z,5.47
2022-12-23T20:56:35.339Z,5.97
2022-12-23T20:59:03.873Z,4.50
2022-12-23T21:01:39.085Z,5.75
2022-12-23T21:04:09.448Z,5.97
2022-12-23T21:06:36.796Z,6.43
2022-12-23T21:09:07.146Z,5.97
2022-12-23T21:11:40.199Z,5.57
2022-12-23T21:14:08.053Z,5.50
2022-12-23T21:16:39.403Z,5.80
2022-12-23T21:19:13.286Z,5.47
2022-12-23T21:21:40.310Z,6.75
2022-12-23T21:24:07.397Z,6.45
2022-12-23T21:26:35.929Z,5.20
2022-12-23T21:29:06.814Z,4.80
2022-12-23T21:31:50.565Z,4.93
2022-12-23T21:34:18.781Z,4.57
2022-12-23T21:36:46.796Z,5.28
2022-12-23T21:39:20.897Z,4.03
2022-12-23T21:41:51.631Z,5.25
2022-12-23T21:44:26.448Z,6.20
2022-12-23T21:46:57.342Z,6.38
2022-12-23T21:49:24.774Z,5.68
2022-12-23T21:51:59.829Z,7.10
2022-12-23T21:54:32.773Z,6.20
2022-12-23T21:57:00.064Z,5.57
2022-12-23T21:59:34.914Z,6.22
2022-12-23T22:02:07.297Z,5.63
2022-12-23T22:04:40.713Z,5.90
2022-12-23T22:07:13.611Z,6.38
2022-12-23T22:09:45.980Z,4.40
2022-12-23T22:12:22.452Z,5.78
2022-12-23T22:14:49.804Z,5.47
2022-12-23T22:19:58.847Z,5.80
2022-12-23T22:22:31.653Z,5.10
2022-12-23T22:25:07.356Z,4.80
2022-12-23T22:27:34.850Z,6.75
2022-12-23T22:30:02.286Z,5.40
2022-12-23T22:32:29.717Z,5.28
2022-12-23T22:34:57.516Z,6.43
2022-12-23T22:37:27.233Z,5.35
2022-12-23T22:39:58.047Z,5.95
2022-12-23T22:42:33.917Z,6.35
2022-12-23T22:45:01.347Z,5.88
2022-12-23T22:47:31.765Z,5.87
2022-12-23T22:49:59.280Z,5.38
2022-12-23T22:52:29.337Z,5.35
2022-12-23T22:54:57.087Z,5.97
2022-12-23T22:57:24.558Z,5.07
2022-12-23T22:59:52.295Z,6.03
2022-12-23T23:02:19.738Z,5.30
2022-12-23T23:04:47.394Z,6.20
2022-12-23T23:07:15.241Z,6.15
2022-12-23T23:09:42.580Z,5.38
2022-12-23T23:12:10.321Z,5.70
2022-12-23T23:14:56.243Z,5.75
2022-12-23T23:17:28.604Z,6.03
2022-12-23T23:19:59.302Z,6.22
2022-12-23T23:22:26.543Z,6.95
2022-12-23T23:24:53.765Z,6.87
2022-12-23T23:27:21.042Z,6.75
2022-12-23T23:29:48.416Z,5.40
2022-12-23T23:32:15.561Z,7.55
2022-12-23T23:34:46.024Z,6.13
2022-12-23T23:37:18.514Z,5.43
2022-12-23T23:39:46.286Z,5.53
2022-12-23T23:42:17.964Z,6.13
2022-12-23T23:44:44.962Z,6.78
2022-12-23T23:47:18.439Z,6.03
2022-12-23T23:49:48.155Z,6.07
2022-12-23T23:52:15.778Z,5.78
2022-12-23T23:54:44.151Z,7.57
2022-12-23T23:57:11.263Z,5.45
2022-12-23T23:59:38.227Z,5.28
